createdAt,value
2017-09-24T00:00:02.754Z,12.10
2017-09-24T00:02:30.299Z,12.10
2017-09-24T00:04:57.833Z,12.00
2017-09-24T00:07:25.363Z,12.00
2017-09-24T00:09:52.904Z,11.90
2017-09-24T00:12:20.430Z,11.90
2017-09-24T00:14:47.972Z,11.90
2017-09-24T00:17:15.504Z,11.90
2017-09-24T00:19:43.051Z,11.90
2017-09-24T00:22:11.759Z,11.90
2017-09-24T00:24:40.790Z,11.90
2017-09-24T00:27:08.335Z,11.80
2017-09-24T00:29:35.863Z,11.80
2017-09-24T00:32:03.414Z,11.80
2017-09-24T00:34:31.380Z,11.80
2017-09-24T00:36:58.915Z,11.80
2017-09-24T00:39:26.445Z,11.80
2017-09-24T00:41:53.991Z,11.80
2017-09-24T00:44:21.918Z,11.70
2017-09-24T00:46:49.844Z,11.70
2017-09-24T00:49:17.383Z,11.70
2017-09-24T00:51:44.911Z,11.70
2017-09-24T00:54:12.451Z,11.70
2017-09-24T00:56:41.206Z,11.70
2017-09-24T00:59:08.798Z,11.70
2017-09-24T01:01:36.330Z,11.70
2017-09-24T01:04:03.880Z,11.60
2017-09-24T01:06:31.403Z,11.60
2017-09-24T01:08:58.959Z,11.60
2017-09-24T01:11:26.470Z,11.50
2017-09-24T01:13:54.003Z,11.40
2017-09-24T01:16:21.543Z,11.40
2017-09-24T01:18:49.076Z,11.30
2017-09-24T01:21:16.639Z,11.30
2017-09-24T01:23:44.551Z,11.30
2017-09-24T01:26:12.104Z,11.30
2017-09-24T01:28:40.858Z,11.20
2017-09-24T01:31:08.401Z,11.30
2017-09-24T01:33:36.379Z,11.20
2017-09-24T01:36:03.899Z,11.20
2017-09-24T01:38:31.486Z,11.10
2017-09-24T01:40:59.403Z,10.90
2017-09-24T01:43:26.934Z,10.90
2017-09-24T01:45:54.457Z,10.80
2017-09-24T01:48:22.008Z,10.80
2017-09-24T01:50:49.541Z,10.70
2017-09-24T01:53:17.087Z,10.70
2017-09-24T01:55:44.606Z,10.70
2017-09-24T01:58:12.140Z,10.70
2017-09-24T02:00:39.675Z,10.60
2017-09-24T02:03:07.191Z,10.60
2017-09-24T02:05:35.319Z,10.60
2017-09-24T02:08:02.834Z,10.50
2017-09-24T02:10:30.363Z,10.50
2017-09-24T02:12:57.881Z,10.50
2017-09-24T02:15:25.835Z,10.50
2017-09-24T02:17:53.356Z,10.50
2017-09-24T02:20:21.315Z,10.40
2017-09-24T02:22:48.855Z,10.50
2017-09-24T02:25:16.371Z,10.40
2017-09-24T02:27:43.907Z,10.40
2017-09-24T02:30:11.430Z,10.40
2017-09-24T02:32:39.980Z,10.40
2017-09-24T02:35:07.499Z,10.40
2017-09-24T02:37:35.424Z,10.30
2017-09-24T02:40:02.943Z,10.40
2017-09-24T02:42:30.502Z,10.40
2017-09-24T02:44:58.015Z,10.40
2017-09-24T02:47:25.539Z,10.40
2017-09-24T02:49:53.476Z,10.40
2017-09-24T02:52:20.988Z,10.40
2017-09-24T02:54:48.532Z,10.40
2017-09-24T02:57:16.047Z,10.40
2017-09-24T02:59:43.584Z,10.40
2017-09-24T03:02:11.103Z,10.40
2017-09-24T03:04:39.268Z,10.40
2017-09-24T03:07:06.783Z,10.40
2017-09-24T03:09:34.299Z,10.40
2017-09-24T03:12:01.836Z,10.40
2017-09-24T03:14:29.364Z,10.40
2017-09-24T03:16:56.903Z,10.40
2017-09-24T03:19:24.426Z,10.40
2017-09-24T03:21:51.959Z,10.40
2017-09-24T03:24:19.874Z,10.50
2017-09-24T03:26:47.412Z,10.50
2017-09-24T03:29:14.930Z,10.50
2017-09-24T03:31:42.885Z,10.50
2017-09-24T03:34:11.276Z,10.50
2017-09-24T03:36:38.800Z,10.50
2017-09-24T03:39:06.346Z,10.60
2017-09-24T03:41:33.884Z,10.60
2017-09-24T03:44:01.469Z,10.70
2017-09-24T03:46:29.003Z,10.70
2017-09-24T03:48:56.551Z,10.70
2017-09-24T03:51:24.471Z,10.70
2017-09-24T03:53:52.015Z,10.80
2017-09-24T03:56:19.947Z,10.70
2017-09-24T03:58:47.466Z,10.70
2017-09-24T04:01:15.012Z,10.70
2017-09-24T04:03:42.556Z,10.80
2017-09-24T04:06:11.525Z,10.90
2017-09-24T04:08:40.099Z,10.90
2017-09-24T04:11:07.640Z,10.90
2017-09-24T04:13:35.163Z,10.90
2017-09-24T04:16:02.704Z,10.90
2017-09-24T04:18:30.245Z,10.90
2017-09-24T04:20:57.768Z,10.90
2017-09-24T04:23:25.706Z,11.00
2017-09-24T04:25:53.235Z,11.00
2017-09-24T04:28:21.175Z,11.00
2017-09-24T04:30:48.702Z,11.10
2017-09-24T04:33:16.243Z,11.00
2017-09-24T04:35:43.779Z,11.10
2017-09-24T04:38:11.295Z,11.10
2017-09-24T04:40:38.835Z,11.10
2017-09-24T04:43:06.364Z,11.10
2017-09-24T04:45:34.211Z,11.10
2017-09-24T04:48:01.738Z,11.10
2017-09-24T04:50:29.285Z,11.10
2017-09-24T04:52:56.811Z,11.10
2017-09-24T04:55:24.372Z,11.20
2017-09-24T04:57:52.287Z,11.20
2017-09-24T05:00:19.811Z,11.20
2017-09-24T05:02:47.347Z,11.20
2017-09-24T05:05:14.866Z,11.20
2017-09-24T05:07:42.399Z,11.20
2017-09-24T05:10:10.536Z,11.20
2017-09-24T05:12:38.096Z,11.20
2017-09-24T05:15:05.628Z,11.20
2017-09-24T05:17:33.188Z,11.10
2017-09-24T05:20:00.713Z,11.10
2017-09-24T05:22:28.232Z,11.10
2017-09-24T05:24:55.775Z,11.10
2017-09-24T05:27:23.300Z,11.00
2017-09-24T05:29:51.266Z,11.00
2017-09-24T05:32:18.792Z,11.00
2017-09-24T05:34:46.337Z,11.00
2017-09-24T05:37:13.854Z,10.90
2017-09-24T05:39:41.392Z,10.90
2017-09-24T05:42:09.988Z,10.90
2017-09-24T05:44:37.535Z,10.80
2017-09-24T05:47:05.055Z,10.80
2017-09-24T05:49:32.575Z,10.80
2017-09-24T05:52:00.111Z,10.70
2017-09-24T05:54:27.624Z,10.70
2017-09-24T05:56:55.173Z,10.70
2017-09-24T05:59:22.697Z,10.70
2017-09-24T06:01:50.633Z,10.80
2017-09-24T06:04:18.150Z,10.80
2017-09-24T06:06:45.691Z,10.80
2017-09-24T06:09:13.208Z,10.80
2017-09-24T06:11:40.772Z,10.70
2017-09-24T06:14:08.299Z,10.70
2017-09-24T06:16:36.219Z,10.60
2017-09-24T06:19:03.756Z,10.60
2017-09-24T06:21:31.292Z,10.60
2017-09-24T06:23:58.843Z,10.60
2017-09-24T06:26:26.368Z,10.60
2017-09-24T06:28:53.912Z,10.60
2017-09-24T06:31:21.835Z,10.60
2017-09-24T06:33:49.375Z,10.70
2017-09-24T06:36:16.927Z,10.70
2017-09-24T06:38:44.477Z,10.70
2017-09-24T06:41:12.391Z,10.70
2017-09-24T06:43:40.771Z,10.70
2017-09-24T06:46:09.381Z,10.90
2017-09-24T06:48:37.308Z,10.90
2017-09-24T06:51:04.852Z,10.90
2017-09-24T06:53:32.781Z,11.00
2017-09-24T06:56:00.331Z,11.00
2017-09-24T06:58:27.856Z,11.10
2017-09-24T07:00:55.395Z,11.20
2017-09-24T07:03:22.927Z,11.30
2017-09-24T07:05:50.487Z,11.40
2017-09-24T07:08:18.011Z,11.50
2017-09-24T07:10:45.539Z,11.60
2017-09-24T07:13:13.085Z,11.70
2017-09-24T07:15:40.621Z,11.90
2017-09-24T07:18:08.165Z,11.90
2017-09-24T07:20:35.691Z,12.00
2017-09-24T07:23:03.235Z,12.20
2017-09-24T07:25:30.755Z,12.20
2017-09-24T07:27:58.295Z,12.30
2017-09-24T07:30:25.820Z,12.40
2017-09-24T07:32:53.385Z,12.50
2017-09-24T07:35:20.916Z,12.50
2017-09-24T07:37:48.435Z,12.60
2017-09-24T07:40:15.979Z,12.60
2017-09-24T07:42:43.512Z,12.70
2017-09-24T07:45:11.061Z,12.80
2017-09-24T07:47:39.190Z,12.90
2017-09-24T07:50:06.722Z,13.00
2017-09-24T07:52:34.247Z,13.00
2017-09-24T07:55:01.817Z,13.10
2017-09-24T07:57:29.338Z,13.20
2017-09-24T07:59:56.892Z,13.30
2017-09-24T08:02:24.422Z,13.30
2017-09-24T08:04:51.942Z,13.30
2017-09-24T08:07:19.480Z,13.40
2017-09-24T08:09:47.000Z,13.40
2017-09-24T08:12:14.539Z,13.50
2017-09-24T08:14:42.055Z,13.50
2017-09-24T08:17:10.926Z,13.70
2017-09-24T08:19:39.998Z,13.70
2017-09-24T08:22:07.660Z,13.70
2017-09-24T08:24:35.179Z,13.80
2017-09-24T08:27:02.711Z,13.90
2017-09-24T08:29:30.262Z,13.90
2017-09-24T08:31:58.166Z,14.00
2017-09-24T08:34:25.706Z,14.00
2017-09-24T08:36:53.243Z,14.10
2017-09-24T08:39:20.792Z,14.20
2017-09-24T08:41:48.383Z,14.30
2017-09-24T08:44:15.935Z,14.30
2017-09-24T08:46:43.443Z,14.40
2017-09-24T08:49:10.955Z,14.50
2017-09-24T08:51:38.883Z,14.80
2017-09-24T08:54:06.400Z,14.70
2017-09-24T08:56:33.936Z,15.00
2017-09-24T08:59:01.474Z,15.20
2017-09-24T09:01:29.004Z,15.40
2017-09-24T09:03:56.515Z,15.60
2017-09-24T09:06:24.048Z,15.80
2017-09-24T09:08:51.955Z,15.90
2017-09-24T09:11:19.509Z,15.90
2017-09-24T09:13:47.428Z,16.20
2017-09-24T09:16:14.945Z,16.20
2017-09-24T09:18:42.480Z,16.50
2017-09-24T09:21:11.525Z,17.20
2017-09-24T09:23:40.115Z,17.20
2017-09-24T09:26:08.042Z,17.60
2017-09-24T09:28:35.594Z,17.60
2017-09-24T09:31:03.515Z,17.90
2017-09-24T09:33:31.080Z,18.00
2017-09-24T09:35:58.599Z,18.10
2017-09-24T09:38:26.128Z,18.10
2017-09-24T09:40:53.643Z,18.20
2017-09-24T09:43:33.039Z,18.30
2017-09-24T09:46:00.558Z,18.50
2017-09-24T09:48:28.073Z,18.70
2017-09-24T09:50:55.608Z,18.80
2017-09-24T09:53:23.130Z,19.00
2017-09-24T09:55:51.059Z,19.10
2017-09-24T09:58:18.577Z,19.10
2017-09-24T10:00:46.113Z,19.10
2017-09-24T10:03:13.623Z,19.30
2017-09-24T10:05:41.157Z,19.40
2017-09-24T10:08:20.764Z,19.60
2017-09-24T10:10:48.298Z,19.60
2017-09-24T10:13:15.812Z,19.70
2017-09-24T10:15:43.726Z,19.40
2017-09-24T10:18:11.273Z,19.40
2017-09-24T10:20:38.787Z,19.30
2017-09-24T10:23:06.320Z,19.10
2017-09-24T10:25:33.834Z,18.90
2017-09-24T10:28:01.791Z,18.60
2017-09-24T10:30:41.213Z,18.60
2017-09-24T10:33:09.405Z,18.60
2017-09-24T10:35:37.306Z,18.50
2017-09-24T10:38:04.885Z,18.50
2017-09-24T10:40:33.319Z,18.50
2017-09-24T10:43:00.853Z,18.50
2017-09-24T10:45:28.390Z,18.50
2017-09-24T10:47:55.903Z,18.70
2017-09-24T10:50:23.435Z,19.10
2017-09-24T10:52:50.952Z,19.50
2017-09-24T10:55:18.503Z,19.70
2017-09-24T10:57:46.023Z,20.00
2017-09-24T11:00:13.543Z,20.00
2017-09-24T11:02:41.067Z,19.80
2017-09-24T11:05:09.206Z,19.90
2017-09-24T11:07:36.736Z,20.00
2017-09-24T11:10:04.248Z,20.30
2017-09-24T11:12:31.814Z,20.60
2017-09-24T11:14:59.720Z,20.50
2017-09-24T11:17:27.281Z,20.50
2017-09-24T11:19:54.799Z,20.20
2017-09-24T11:22:22.388Z,19.90
2017-09-24T11:24:49.920Z,19.60
2017-09-24T11:27:17.429Z,19.50
2017-09-24T11:29:45.351Z,19.20
2017-09-24T11:32:12.868Z,19.30
2017-09-24T11:34:41.773Z,19.20
2017-09-24T11:37:10.260Z,19.30
2017-09-24T11:39:37.984Z,19.40
2017-09-24T11:42:05.496Z,19.50
2017-09-24T11:44:33.015Z,19.40
2017-09-24T11:47:00.548Z,19.40
2017-09-24T11:49:28.215Z,19.50
2017-09-24T11:51:55.747Z,19.60
2017-09-24T11:54:23.272Z,19.60
2017-09-24T11:56:50.803Z,19.60
2017-09-24T11:59:18.899Z,19.30
2017-09-24T12:01:46.832Z,19.30
2017-09-24T12:04:14.367Z,19.30
2017-09-24T12:06:42.277Z,19.00
2017-09-24T12:09:09.810Z,19.00
2017-09-24T12:11:37.347Z,19.00
2017-09-24T12:14:04.879Z,19.00
2017-09-24T12:16:32.395Z,19.10
2017-09-24T12:19:00.348Z,19.20
2017-09-24T12:21:27.859Z,19.20
2017-09-24T12:23:55.375Z,19.20
2017-09-24T12:26:22.914Z,19.20
2017-09-24T12:28:50.450Z,19.10
2017-09-24T12:31:17.984Z,19.10
2017-09-24T12:33:45.502Z,19.10
2017-09-24T12:36:13.407Z,19.00
2017-09-24T12:38:40.935Z,19.00
2017-09-24T12:41:09.613Z,19.00
2017-09-24T12:43:37.172Z,18.90
2017-09-24T12:46:05.092Z,18.90
2017-09-24T12:48:32.607Z,18.90
2017-09-24T12:51:00.142Z,18.90
2017-09-24T12:53:27.652Z,19.00
2017-09-24T12:55:55.203Z,19.10
2017-09-24T12:58:22.720Z,19.20
2017-09-24T13:00:50.235Z,19.40
2017-09-24T13:03:17.781Z,19.40
2017-09-24T13:05:45.300Z,19.50
2017-09-24T13:08:12.853Z,19.40
2017-09-24T13:10:41.554Z,19.30
2017-09-24T13:13:10.467Z,19.20
2017-09-24T13:15:37.982Z,19.20
2017-09-24T13:18:05.511Z,19.10
2017-09-24T13:20:33.031Z,19.00
2017-09-24T13:23:00.555Z,18.90
2017-09-24T13:25:28.099Z,18.90
2017-09-24T13:27:55.616Z,18.90
2017-09-24T13:30:23.164Z,18.80
2017-09-24T13:32:50.689Z,18.70
2017-09-24T13:35:18.863Z,18.70
2017-09-24T13:37:46.387Z,18.70
2017-09-24T13:40:13.919Z,18.70
2017-09-24T13:42:41.439Z,18.70
2017-09-24T13:45:10.266Z,18.70
2017-09-24T13:47:38.260Z,18.70
2017-09-24T13:50:06.175Z,18.70
2017-09-24T13:52:33.704Z,18.70
2017-09-24T13:55:01.276Z,18.80
2017-09-24T13:57:28.803Z,18.80
2017-09-24T13:59:56.714Z,18.80
2017-09-24T14:02:24.260Z,18.90
2017-09-24T14:04:51.783Z,18.90
2017-09-24T14:07:19.304Z,18.90
2017-09-24T14:09:46.843Z,18.90
2017-09-24T14:12:14.763Z,19.00
2017-09-24T14:14:42.295Z,19.00
2017-09-24T14:17:09.812Z,19.10
2017-09-24T14:19:37.353Z,19.10
2017-09-24T14:22:04.875Z,18.90
2017-09-24T14:24:32.839Z,18.80
2017-09-24T14:27:00.361Z,18.80
2017-09-24T14:29:28.295Z,18.70
2017-09-24T14:31:55.822Z,18.80
2017-09-24T14:34:23.335Z,18.70
2017-09-24T14:36:51.261Z,18.70
2017-09-24T14:39:18.775Z,18.80
2017-09-24T14:41:46.311Z,18.70
2017-09-24T14:44:13.833Z,18.70
2017-09-24T14:46:41.371Z,18.70
2017-09-24T14:49:08.899Z,18.70
2017-09-24T14:51:36.456Z,18.60
2017-09-24T14:54:03.973Z,18.60
2017-09-24T14:56:31.491Z,18.60
2017-09-24T14:58:59.423Z,18.60
2017-09-24T15:01:26.952Z,18.60
2017-09-24T15:03:54.487Z,18.50
2017-09-24T15:06:22.005Z,18.50
2017-09-24T15:08:49.548Z,18.50
2017-09-24T15:11:17.485Z,18.40
2017-09-24T15:13:45.025Z,18.40
2017-09-24T15:16:12.941Z,18.40
2017-09-24T15:18:41.695Z,18.40
2017-09-24T15:21:10.053Z,18.40
2017-09-24T15:23:37.974Z,18.50
2017-09-24T15:26:05.505Z,18.50
2017-09-24T15:28:33.023Z,18.50
2017-09-24T15:31:00.967Z,18.60
2017-09-24T15:33:28.492Z,18.50
2017-09-24T15:35:56.035Z,18.60
2017-09-24T15:38:23.551Z,18.60
2017-09-24T15:40:51.092Z,18.60
2017-09-24T15:43:18.612Z,18.70
2017-09-24T15:45:46.128Z,18.70
2017-09-24T15:48:13.668Z,18.60
2017-09-24T15:50:41.585Z,18.60
2017-09-24T15:53:10.107Z,18.60
2017-09-24T15:55:37.624Z,18.60
2017-09-24T15:58:05.167Z,18.50
2017-09-24T16:00:32.678Z,18.60
2017-09-24T16:03:00.227Z,18.50
2017-09-24T16:05:27.753Z,18.50
2017-09-24T16:07:55.268Z,18.50
2017-09-24T16:10:23.197Z,18.60
2017-09-24T16:12:50.716Z,18.60
2017-09-24T16:15:18.253Z,18.60
2017-09-24T16:17:45.772Z,18.50
2017-09-24T16:20:13.333Z,18.50
2017-09-24T16:22:40.856Z,18.50
2017-09-24T16:25:08.379Z,18.50
2017-09-24T16:27:36.303Z,18.40
2017-09-24T16:30:03.825Z,18.40
2017-09-24T16:32:31.388Z,18.40
2017-09-24T16:34:58.949Z,18.30
2017-09-24T16:37:26.507Z,18.30
2017-09-24T16:39:54.028Z,18.30
2017-09-24T16:42:21.545Z,18.20
2017-09-24T16:44:49.492Z,18.10
2017-09-24T16:47:17.025Z,18.10
2017-09-24T16:49:44.587Z,18.10
2017-09-24T16:52:12.144Z,18.00
2017-09-24T16:54:39.701Z,18.00
2017-09-24T16:57:07.638Z,17.80
2017-09-24T16:59:35.152Z,17.80
2017-09-24T17:02:02.695Z,17.70
2017-09-24T17:04:30.215Z,17.60
2017-09-24T17:06:57.761Z,17.50
2017-09-24T17:09:25.282Z,17.40
2017-09-24T17:11:52.828Z,17.20
2017-09-24T17:14:20.353Z,17.10
2017-09-24T17:16:47.896Z,17.00
2017-09-24T17:19:15.420Z,16.80
2017-09-24T17:21:42.952Z,16.70
2017-09-24T17:24:10.468Z,16.60
2017-09-24T17:26:38.017Z,16.50
2017-09-24T17:29:05.542Z,16.30
2017-09-24T17:31:33.203Z,16.20
2017-09-24T17:34:01.137Z,16.10
2017-09-24T17:36:28.669Z,16.10
2017-09-24T17:38:56.206Z,15.90
2017-09-24T17:41:23.727Z,15.80
2017-09-24T17:43:51.266Z,15.70
2017-09-24T17:46:18.775Z,15.60
2017-09-24T17:48:46.312Z,15.50
2017-09-24T17:51:13.827Z,15.40
2017-09-24T17:53:41.359Z,15.30
2017-09-24T17:56:10.577Z,15.20
2017-09-24T17:58:38.141Z,15.20
2017-09-24T18:01:05.655Z,15.10
2017-09-24T18:03:33.179Z,15.00
2017-09-24T18:06:01.115Z,14.90
2017-09-24T18:08:28.632Z,14.90
2017-09-24T18:10:56.163Z,14.80
2017-09-24T18:13:23.681Z,14.70
2017-09-24T18:15:51.235Z,14.60
2017-09-24T18:18:19.153Z,14.60
2017-09-24T18:20:46.708Z,14.60
2017-09-24T18:23:14.620Z,14.60
2017-09-24T18:25:42.132Z,14.60
2017-09-24T18:28:10.507Z,14.60
2017-09-24T18:30:38.027Z,14.60
2017-09-24T18:33:05.562Z,14.60
2017-09-24T18:35:33.095Z,14.60
2017-09-24T18:38:00.626Z,14.60
2017-09-24T18:40:28.541Z,14.60
2017-09-24T18:42:56.076Z,14.60
2017-09-24T18:45:23.592Z,14.60
2017-09-24T18:47:51.161Z,14.60
2017-09-24T18:50:18.695Z,14.50
2017-09-24T18:52:46.220Z,14.50
2017-09-24T18:55:13.765Z,14.50
2017-09-24T18:57:41.281Z,14.50
2017-09-24T19:00:08.824Z,14.50
2017-09-24T19:02:36.343Z,14.40
2017-09-24T19:05:03.889Z,14.40
2017-09-24T19:07:31.461Z,14.30
2017-09-24T19:09:59.003Z,14.30
2017-09-24T19:12:26.522Z,14.20
2017-09-24T19:14:54.079Z,14.20
2017-09-24T19:17:21.599Z,14.30
2017-09-24T19:19:49.116Z,14.30
2017-09-24T19:22:16.652Z,14.30
2017-09-24T19:24:44.567Z,14.30
2017-09-24T19:27:12.107Z,14.40
2017-09-24T19:29:40.966Z,14.20
2017-09-24T19:32:10.008Z,14.30
2017-09-24T19:34:37.581Z,14.20
2017-09-24T19:37:05.118Z,14.10
2017-09-24T19:39:32.645Z,14.00
2017-09-24T19:42:01.627Z,13.90
2017-09-24T19:44:29.148Z,14.00
2017-09-24T19:46:57.066Z,13.80
2017-09-24T19:49:24.611Z,13.80
2017-09-24T19:51:52.545Z,13.60
2017-09-24T19:54:20.085Z,13.60
2017-09-24T19:56:48.008Z,13.50
2017-09-24T19:59:15.949Z,13.50
2017-09-24T20:01:43.460Z,13.50
2017-09-24T20:04:10.987Z,13.40
2017-09-24T20:06:39.392Z,13.40
2017-09-24T20:09:06.915Z,13.30
2017-09-24T20:11:34.471Z,13.20
2017-09-24T20:14:02.075Z,13.10
2017-09-24T20:16:29.618Z,12.90
2017-09-24T20:18:57.648Z,12.90
2017-09-24T20:21:25.280Z,12.90
2017-09-24T20:23:53.219Z,12.90
2017-09-24T20:26:20.775Z,12.90
2017-09-24T20:28:48.688Z,13.00
2017-09-24T20:31:16.456Z,13.10
2017-09-24T20:33:44.430Z,13.10
2017-09-24T20:36:11.952Z,13.10
2017-09-24T20:38:40.476Z,13.10
2017-09-24T20:41:07.999Z,13.20
2017-09-24T20:43:35.556Z,13.20
2017-09-24T20:46:03.109Z,13.30
2017-09-24T20:48:31.076Z,13.30
2017-09-24T20:50:58.650Z,13.30
2017-09-24T20:53:26.207Z,13.30
2017-09-24T20:55:53.728Z,13.30
2017-09-24T20:58:21.380Z,13.30
2017-09-24T21:00:48.932Z,13.30
2017-09-24T21:03:16.854Z,13.30
2017-09-24T21:05:44.385Z,13.30
2017-09-24T21:08:11.920Z,13.30
2017-09-24T21:10:40.510Z,13.30
2017-09-24T21:13:08.419Z,13.30
2017-09-24T21:15:35.996Z,13.30
2017-09-24T21:18:03.512Z,13.30
2017-09-24T21:20:31.032Z,13.30
2017-09-24T21:22:58.563Z,13.30
2017-09-24T21:25:26.476Z,13.20
2017-09-24T21:27:54.423Z,13.30
2017-09-24T21:30:21.946Z,13.30
2017-09-24T21:32:49.871Z,13.20
2017-09-24T21:35:17.396Z,13.30
2017-09-24T21:37:44.931Z,13.20
2017-09-24T21:40:12.843Z,13.10
2017-09-24T21:42:41.827Z,13.20
2017-09-24T21:45:09.763Z,13.10
2017-09-24T21:47:37.319Z,13.10
2017-09-24T21:50:04.839Z,13.10
2017-09-24T21:52:33.388Z,13.00
2017-09-24T21:55:00.922Z,13.00
2017-09-24T21:57:28.440Z,13.00
2017-09-24T21:59:55.967Z,12.90
2017-09-24T22:02:23.883Z,12.80
2017-09-24T22:04:51.567Z,12.90
2017-09-24T22:07:19.952Z,12.80
2017-09-24T22:09:47.592Z,12.80
2017-09-24T22:12:15.120Z,12.80
2017-09-24T22:14:43.068Z,12.70
2017-09-24T22:17:11.206Z,12.80
2017-09-24T22:19:40.231Z,12.70
2017-09-24T22:22:08.177Z,12.60
2017-09-24T22:24:35.690Z,12.70
2017-09-24T22:27:03.219Z,12.60
2017-09-24T22:29:30.743Z,12.60
2017-09-24T22:31:58.273Z,12.50
2017-09-24T22:34:26.190Z,12.40
2017-09-24T22:36:53.722Z,12.40
2017-09-24T22:39:21.243Z,12.30
2017-09-24T22:41:49.194Z,12.20
2017-09-24T22:44:16.717Z,12.30
2017-09-24T22:46:44.641Z,12.10
2017-09-24T22:49:12.180Z,12.10
2017-09-24T22:51:41.300Z,12.00
2017-09-24T22:54:08.838Z,12.00
2017-09-24T22:56:36.360Z,11.90
2017-09-24T22:59:03.896Z,11.90
2017-09-24T23:01:31.420Z,12.00
2017-09-24T23:03:58.964Z,12.00
2017-09-24T23:06:26.487Z,12.00
2017-09-24T23:08:54.034Z,12.00
2017-09-24T23:11:21.558Z,12.00
2017-09-24T23:13:49.081Z,12.00
2017-09-24T23:16:17.023Z,12.10
2017-09-24T23:18:44.544Z,12.10
2017-09-24T23:21:12.087Z,12.10
2017-09-24T23:23:40.539Z,12.20
2017-09-24T23:26:08.089Z,12.10
2017-09-24T23:28:35.612Z,12.20
2017-09-24T23:31:03.146Z,12.20
2017-09-24T23:33:30.678Z,12.20
2017-09-24T23:35:58.227Z,12.20
2017-09-24T23:38:25.755Z,12.20
2017-09-24T23:40:53.683Z,12.20
2017-09-24T23:43:21.613Z,12.20
2017-09-24T23:45:49.140Z,12.30
2017-09-24T23:48:16.724Z,12.20
2017-09-24T23:50:44.248Z,12.30
2017-09-24T23:53:11.796Z,12.30
2017-09-24T23:55:40.963Z,12.20
2017-09-24T23:58:09.282Z,12.20
